This is the latest recevied weather packets stored in our database for station/object K4LEN. If no packets are shown the sender has not sent any weather packets the latest 1 day(s).
| Time | Temp. | Humidity | Pressure | Rain* | Wind** | Luminosity | Snow |
|---|---|---|---|---|---|---|---|
| 1777993150 | 19.44° C | 70% | 1016.9 hPa | 0 mm | 4.47 m/s, 6° | 494 W/m² | - |
| 1777992546 | 18.89° C | 71% | 1016.6 hPa | 0 mm | 1.34 m/s, 282° | 333 W/m² | - |
| 1777991941 | 18.89° C | 73% | 1016.7 hPa | 0 mm | 0.89 m/s, 259° | 255 W/m² | - |
| 1777991335 | 18.89° C | 72% | 1016.6 hPa | 0 mm | 3.13 m/s, 335° | 325 W/m² | - |
| 1777990735 | 18.33° C | 73% | 1016.7 hPa | 0 mm | 3.13 m/s, 23° | 314 W/m² | - |
| 1777990134 | 17.78° C | 75% | 1016.6 hPa | 0 mm | 1.34 m/s, 329° | 302 W/m² | - |
| 1777989534 | 17.22° C | 75% | 1016.6 hPa | 0 mm | 2.68 m/s, 355° | 206 W/m² | - |
| 1777988933 | 17.22° C | 75% | 1016.4 hPa | 0 mm | 3.13 m/s, 352° | 184 W/m² | - |
| 1777988332 | 17.22° C | 77% | 1016.5 hPa | 0 mm | 1.79 m/s, 313° | 189 W/m² | - |
| 1777987731 | 16.67° C | 76% | 1016.4 hPa | 0 mm | 0.89 m/s, 241° | 152 W/m² | - |
| 1777987125 | 16.67° C | 78% | 1016.1 hPa | 0 mm | 2.68 m/s, 358° | 196 W/m² | - |
| 1777986520 | 15.56° C | 80% | 1016.1 hPa | 0 mm | 1.79 m/s, 329° | 183 W/m² | - |
| 1777985915 | 15.56° C | 81% | 1016.4 hPa | 0 mm | 2.24 m/s, 349° | 158 W/m² | - |
| 1777985314 | 15° C | 82% | 1016.3 hPa | 0 mm | 2.24 m/s, 343° | 131 W/m² | - |
| 1777984713 | 15° C | 83% | 1016 hPa | 0 mm | 2.24 m/s, 351° | 108 W/m² | - |
| 1777984111 | 15° C | 84% | 1015.8 hPa | 0 mm | 1.34 m/s, 284° | 89 W/m² | - |
| 1777983512 | 14.44° C | 85% | 1016 hPa | 0 mm | 1.34 m/s, 300° | 77 W/m² | - |
| 1777982910 | 13.89° C | 85% | 1015.8 hPa | 0 mm | 1.34 m/s, 330° | 62 W/m² | - |
| 1777982306 | 13.89° C | 87% | 1015.9 hPa | 0 mm | 0.89 m/s, 287° | 57 W/m² | - |
| 1777981701 | 13.89° C | 87% | 1015.8 hPa | 0 mm | 0.89 m/s, 285° | 48 W/m² | - |
| 1777981099 | 13.33° C | 87% | 1015.8 hPa | 0 mm | 0.45 m/s, 255° | 34 W/m² | - |
| 1777980497 | 13.33° C | 86% | 1015.4 hPa | 0 mm | 0.89 m/s, 270° | 20 W/m² | - |
| 1777979896 | 13.89° C | 84% | 1015.1 hPa | 0 mm | 0.45 m/s, 251° | 12 W/m² | - |
| 1777979293 | 13.89° C | 84% | 1015 hPa | 0 mm | 0.89 m/s, 274° | 5 W/m² | - |
| 1777978693 | 13.89° C | 84% | 1014.8 hPa | 0 mm | 0.89 m/s, 278° | 1 W/m² | - |
* Rain latest hour (hover to see other rain measurements)
** Current wind speed in m/s (hover to see current wind gust speed)